Time;durP1;ratioP1;P1;durP2;ratioP2;P2;SDS_P1;SDS_P2;PMS_P1;PMS_P2;Temp;Humidity;BMP_temperature;BMP_pressure;BME280_temperature;BME280_humidity;BME280_pressure;Samples;Min_cycle;Max_cycle;Signal;HPM_P1;HPM_P2
2021/06/03 00:02:10;;;;;;;2.25;1.92;;;;;26.70;101426.00;;;;5067884;28;20245;-75
2021/06/03 00:04:37;;;;;;;3.15;2.22;;;;;26.80;101426.00;;;;5071107;28;20213;-75
2021/06/03 00:07:04;;;;;;;1.85;1.75;;;;;26.80;101431.00;;;;5088232;28;20205;-75
2021/06/03 00:09:32;;;;;;;3.22;2.03;;;;;26.80;101441.00;;;;5071587;28;20978;-75
2021/06/03 00:11:59;;;;;;;1.88;1.75;;;;;26.80;101448.00;;;;5067088;28;20213;-75
2021/06/03 00:14:26;;;;;;;2.95;1.70;;;;;26.80;101449.00;;;;5066835;28;20331;-75
2021/06/03 00:16:53;;;;;;;6.75;2.22;;;;;26.80;101447.00;;;;5067732;28;20207;-76
2021/06/03 00:19:21;;;;;;;2.45;1.90;;;;;26.90;101432.00;;;;5067192;28;20210;-75
2021/06/03 00:21:48;;;;;;;2.28;2.08;;;;;26.90;101427.00;;;;5067306;28;20207;-76
2021/06/03 00:24:15;;;;;;;2.28;1.80;;;;;26.90;101432.00;;;;5067237;28;20199;-75
2021/06/03 00:26:42;;;;;;;2.47;2.03;;;;;26.90;101427.00;;;;5067506;28;20601;-76
2021/06/03 00:29:09;;;;;;;3.00;2.20;;;;;26.90;101430.00;;;;5067979;28;20219;-75
2021/06/03 00:31:36;;;;;;;1.73;1.60;;;;;26.90;101441.00;;;;5067076;28;20774;-75
2021/06/03 00:34:03;;;;;;;2.60;2.13;;;;;26.90;101432.00;;;;5067662;28;20595;-76
2021/06/03 00:36:31;;;;;;;3.65;2.33;;;;;26.90;101438.00;;;;5066310;28;20211;-75
2021/06/03 00:38:58;;;;;;;2.17;1.60;;;;;26.90;101429.00;;;;5067504;28;20203;-76
2021/06/03 00:41:24;;;;;;;4.05;1.88;;;;;26.90;101422.00;;;;5066860;28;20203;-75
2021/06/03 00:43:51;;;;;;;3.83;1.85;;;;;26.90;101418.00;;;;5080346;28;20199;-75
2021/06/03 00:46:18;;;;;;;2.20;2.00;;;;;26.80;101422.00;;;;5066190;28;20278;-75
2021/06/03 00:48:45;;;;;;;1.98;1.77;;;;;26.80;101422.00;;;;5066150;28;20692;-75
2021/06/03 00:51:12;;;;;;;2.05;1.85;;;;;26.80;101422.00;;;;5066699;28;20225;-75
2021/06/03 00:53:43;;;;;;;2.15;1.85;;;;;26.80;101420.00;;;;5078566;28;20202;-75
2021/06/03 00:56:11;;;;;;;2.90;1.83;;;;;26.80;101412.00;;;;5085559;28;20203;-75
2021/06/03 00:58:38;;;;;;;4.55;2.55;;;;;26.80;101419.00;;;;5086561;28;20232;-75
2021/06/03 01:01:05;;;;;;;2.95;2.40;;;;;26.70;101421.00;;;;5068528;28;21047;-75
2021/06/03 01:03:33;;;;;;;2.58;2.35;;;;;26.70;101435.00;;;;5067058;28;20248;-75
2021/06/03 01:06:03;;;;;;;2.50;1.90;;;;;26.70;101444.00;;;;5067847;28;20266;-75
2021/06/03 01:08:35;;;;;;;2.80;2.40;;;;;26.60;101451.00;;;;5068103;28;20202;-76
2021/06/03 01:11:06;;;;;;;2.42;1.92;;;;;26.60;101457.00;;;;5076902;28;20226;-75
2021/06/03 01:13:40;;;;;;;2.53;2.25;;;;;26.60;101457.00;;;;5086882;28;20309;-75
2021/06/03 01:16:08;;;;;;;4.50;2.20;;;;;26.60;101470.00;;;;5074538;28;20234;-75
2021/06/03 01:18:37;;;;;;;2.78;2.58;;;;;26.60;101477.00;;;;5069905;28;20742;-75
2021/06/03 01:21:09;;;;;;;3.08;2.40;;;;;26.50;101483.00;;;;5070396;28;20210;-76
2021/06/03 01:23:41;;;;;;;2.75;2.33;;;;;26.50;101496.00;;;;5078660;28;20218;-75
2021/06/03 01:26:10;;;;;;;3.45;2.08;;;;;26.50;101495.00;;;;5074635;28;20619;-75
2021/06/03 01:28:38;;;;;;;4.47;2.15;;;;;26.50;101496.00;;;;5069493;28;20668;-75
2021/06/03 01:31:05;;;;;;;2.58;2.20;;;;;26.40;101504.00;;;;5070520;28;20252;-75
2021/06/03 01:33:35;;;;;;;2.58;2.30;;;;;26.40;101499.00;;;;5070565;28;20211;-75
2021/06/03 01:36:06;;;;;;;4.28;2.28;;;;;26.40;101500.00;;;;5069661;28;20588;-75
2021/06/03 01:38:35;;;;;;;2.55;2.35;;;;;26.40;101502.00;;;;5069468;28;20187;-76
2021/06/03 01:41:07;;;;;;;2.47;2.25;;;;;26.30;101498.00;;;;5070077;28;20674;-75
2021/06/03 01:43:37;;;;;;;2.15;1.95;;;;;26.30;101507.00;;;;5069671;28;20203;-75
2021/06/03 01:46:05;;;;;;;4.63;1.83;;;;;26.30;101509.00;;;;5070923;28;20214;-75
2021/06/03 01:48:32;;;;;;;1.60;1.50;;;;;26.30;101512.00;;;;5069200;28;20645;-76
2021/06/03 01:51:02;;;;;;;1.88;1.77;;;;;26.30;101514.00;;;;5084183;28;20572;-75
2021/06/03 01:53:30;;;;;;;2.17;1.98;;;;;26.20;101503.00;;;;5089074;28;20576;-75
2021/06/03 01:56:01;;;;;;;2.85;2.03;;;;;26.20;101510.00;;;;5089057;28;20263;-75
2021/06/03 01:58:29;;;;;;;2.65;1.88;;;;;26.20;101507.00;;;;5090184;28;20193;-75
2021/06/03 02:00:58;;;;;;;1.52;1.42;;;;;26.10;101511.00;;;;5087954;28;20191;-75
2021/06/03 02:03:25;;;;;;;1.63;1.52;;;;;26.10;101518.00;;;;5089899;28;20206;-75
2021/06/03 02:05:52;;;;;;;3.95;1.92;;;;;26.10;101518.00;;;;5077818;28;20206;-75
2021/06/03 02:08:19;;;;;;;3.05;1.75;;;;;26.10;101517.00;;;;5069944;28;20206;-76
2021/06/03 02:10:46;;;;;;;2.17;1.98;;;;;26.00;101511.00;;;;5068792;28;20235;-76
2021/06/03 02:13:17;;;;;;;2.42;1.80;;;;;26.00;101504.00;;;;5078210;28;20199;-75
2021/06/03 02:15:51;;;;;;;2.28;2.00;;;;;25.90;101509.00;;;;5069131;28;20221;-75
2021/06/03 02:18:21;;;;;;;3.53;2.15;;;;;25.90;101512.00;;;;5069313;28;20195;-76
2021/06/03 02:20:50;;;;;;;9.85;2.60;;;;;25.90;101517.00;;;;5069548;28;20234;-75
2021/06/03 02:23:18;;;;;;;1.95;1.77;;;;;25.90;101515.00;;;;5069431;28;20211;-75
2021/06/03 02:25:45;;;;;;;2.53;2.10;;;;;25.80;101509.00;;;;5076564;28;20202;-75
2021/06/03 02:28:13;;;;;;;2.15;1.85;;;;;25.80;101512.00;;;;5079540;28;20198;-75
2021/06/03 02:30:40;;;;;;;1.90;1.73;;;;;25.80;101507.00;;;;5089804;28;20233;-75
2021/06/03 02:33:07;;;;;;;1.92;1.80;;;;;25.70;101515.00;;;;5089371;28;20224;-75
2021/06/03 02:35:35;;;;;;;2.08;1.88;;;;;25.70;101513.00;;;;5070504;28;20198;-76
2021/06/03 02:38:02;;;;;;;2.17;1.83;;;;;25.70;101509.00;;;;5069415;28;20219;-76
2021/06/03 02:40:31;;;;;;;2.30;2.10;;;;;25.60;101513.00;;;;5069075;28;20297;-76
2021/06/03 02:42:59;;;;;;;2.00;1.75;;;;;25.60;101511.00;;;;5079432;28;20351;-75
2021/06/03 02:45:28;;;;;;;3.78;1.95;;;;;25.60;101509.00;;;;5073359;28;20660;-75
2021/06/03 02:47:55;;;;;;;1.70;1.60;;;;;25.50;101522.00;;;;5080289;28;20195;-75
2021/06/03 02:50:24;;;;;;;2.35;1.90;;;;;25.50;101515.00;;;;5068253;28;20276;-75
2021/06/03 02:52:53;;;;;;;2.03;1.83;;;;;25.50;101514.00;;;;5070128;28;20251;-75
2021/06/03 02:55:22;;;;;;;2.65;1.80;;;;;25.40;101523.00;;;;5080147;28;20190;-75
2021/06/03 02:57:49;;;;;;;2.10;1.90;;;;;25.40;101528.00;;;;5068999;28;20730;-75
2021/06/03 03:00:21;;;;;;;3.25;1.75;;;;;25.30;101525.00;;;;5074127;28;20202;-75
2021/06/03 03:02:47;;;;;;;2.17;1.90;;;;;25.30;101525.00;;;;5088074;28;21577;-75
2021/06/03 03:05:16;;;;;;;1.88;1.73;;;;;25.30;101528.00;;;;5086424;28;20573;-76
2021/06/03 03:07:43;;;;;;;1.77;1.65;;;;;25.20;101528.00;;;;5068173;28;20607;-76
2021/06/03 03:10:14;;;;;;;2.42;2.08;;;;;25.10;101531.00;;;;5069174;28;20291;-75
2021/06/03 03:12:41;;;;;;;2.78;2.25;;;;;25.10;101529.00;;;;5069605;28;20252;-75
2021/06/03 03:15:10;;;;;;;2.05;1.73;;;;;25.10;101533.00;;;;5077285;28;20198;-75
2021/06/03 03:17:37;;;;;;;1.98;1.85;;;;;25.00;101531.00;;;;5068144;28;20243;-76
2021/06/03 03:20:06;;;;;;;2.65;2.17;;;;;25.00;101529.00;;;;5069023;28;20244;-75
2021/06/03 03:22:32;;;;;;;2.60;2.00;;;;;25.00;101529.00;;;;5067510;28;20206;-76
2021/06/03 03:24:59;;;;;;;2.13;1.80;;;;;24.90;101536.00;;;;5068947;28;20340;-75
2021/06/03 03:27:27;;;;;;;3.03;2.08;;;;;24.90;101537.00;;;;5068294;28;20229;-76
2021/06/03 03:29:54;;;;;;;3.70;1.98;;;;;24.90;101531.00;;;;5068151;28;20222;-75
2021/06/03 03:32:21;;;;;;;3.60;1.95;;;;;24.80;101528.00;;;;5075021;28;20695;-76
2021/06/03 03:34:47;;;;;;;2.67;2.47;;;;;24.80;101528.00;;;;5088839;28;20201;-75
2021/06/03 03:37:14;;;;;;;2.63;2.00;;;;;24.70;101530.00;;;;5069990;28;20218;-75
2021/06/03 03:39:41;;;;;;;1.65;1.55;;;;;24.70;101542.00;;;;5067882;28;20252;-76
2021/06/03 03:42:08;;;;;;;2.58;2.38;;;;;24.70;101541.00;;;;5068809;28;20198;-75
2021/06/03 03:44:36;;;;;;;2.53;1.83;;;;;24.60;101544.00;;;;5068191;28;20205;-75
2021/06/03 03:47:03;;;;;;;2.25;2.05;;;;;24.60;101547.00;;;;5069182;28;20199;-75
2021/06/03 03:49:29;;;;;;;4.38;2.05;;;;;24.60;101556.00;;;;5074031;28;20222;-75
2021/06/03 03:51:59;;;;;;;7.15;2.00;;;;;24.60;101559.00;;;;5085492;28;20198;-75
2021/06/03 03:54:26;;;;;;;2.38;2.05;;;;;24.50;101549.00;;;;5087629;28;20292;-76
2021/06/03 03:56:53;;;;;;;3.80;1.90;;;;;24.50;101553.00;;;;5069222;28;20252;-75
2021/06/03 03:59:20;;;;;;;4.18;2.10;;;;;24.40;101548.00;;;;5067432;28;20677;-76
2021/06/03 04:01:52;;;;;;;2.45;2.20;;;;;24.40;101555.00;;;;5067391;28;20256;-75
2021/06/03 04:04:19;;;;;;;2.38;2.17;;;;;24.40;101556.00;;;;5067508;28;20202;-75
2021/06/03 04:06:45;;;;;;;2.40;1.83;;;;;24.40;101560.00;;;;5067323;28;20241;-75
2021/06/03 04:09:12;;;;;;;2.58;2.00;;;;;24.40;101561.00;;;;5067579;28;20460;-75
2021/06/03 04:11:39;;;;;;;2.40;2.20;;;;;24.30;101564.00;;;;5067885;28;20248;-75
2021/06/03 04:14:06;;;;;;;7.82;2.22;;;;;24.30;101569.00;;;;5068394;28;20203;-75
2021/06/03 04:16:33;;;;;;;2.10;1.90;;;;;24.30;101576.00;;;;5067986;28;20202;-75
2021/06/03 04:19:02;;;;;;;3.83;2.30;;;;;24.20;101571.00;;;;5067203;28;20203;-76
2021/06/03 04:21:28;;;;;;;2.47;2.22;;;;;24.30;101573.00;;;;5067486;28;20206;-75
2021/06/03 04:23:55;;;;;;;3.97;2.13;;;;;24.20;101574.00;;;;5079998;28;20614;-75
2021/06/03 04:26:22;;;;;;;3.00;2.13;;;;;24.20;101578.00;;;;5073071;28;20195;-76
2021/06/03 04:28:48;;;;;;;3.83;2.33;;;;;24.20;101583.00;;;;5066943;28;20257;-76
2021/06/03 04:31:15;;;;;;;3.67;2.45;;;;;24.20;101581.00;;;;5066451;28;20198;-76
2021/06/03 04:33:42;;;;;;;2.88;2.33;;;;;24.20;101577.00;;;;5067602;28;20669;-76
2021/06/03 04:36:10;;;;;;;3.00;2.63;;;;;24.20;101584.00;;;;5066569;28;20222;-76
2021/06/03 04:38:37;;;;;;;4.03;2.20;;;;;24.20;101583.00;;;;5067374;28;20340;-75
2021/06/03 04:41:04;;;;;;;5.63;2.28;;;;;24.20;101585.00;;;;5066558;28;20229;-75
2021/06/03 04:43:31;;;;;;;3.15;2.20;;;;;24.20;101591.00;;;;5066863;28;20228;-75
2021/06/03 04:45:58;;;;;;;3.65;2.20;;;;;24.20;101593.00;;;;5069075;28;20560;-75
2021/06/03 04:48:24;;;;;;;2.47;2.13;;;;;24.10;101591.00;;;;5067250;28;20225;-75
2021/06/03 04:50:52;;;;;;;2.72;2.40;;;;;24.10;101590.00;;;;5070577;28;20321;-75
2021/06/03 04:53:20;;;;;;;3.83;2.55;;;;;24.20;101588.00;;;;5077757;28;20221;-75
2021/06/03 04:55:47;;;;;;;3.78;2.25;;;;;24.20;101585.00;;;;5072651;28;20195;-75
2021/06/03 04:58:14;;;;;;;3.10;2.78;;;;;24.20;101600.00;;;;5081583;28;20289;-75
2021/06/03 05:00:43;;;;;;;3.70;2.53;;;;;24.30;101594.00;;;;5086187;28;20198;-75
2021/06/03 05:03:10;;;;;;;3.70;2.42;;;;;24.30;101592.00;;;;5091976;28;20651;-74
2021/06/03 05:05:38;;;;;;;3.22;2.13;;;;;24.30;101596.00;;;;5087779;28;20214;-74
2021/06/03 05:08:06;;;;;;;3.17;2.40;;;;;24.40;101605.00;;;;5087958;28;20229;-75
2021/06/03 05:10:35;;;;;;;2.67;2.35;;;;;24.40;101605.00;;;;5080270;28;20234;-75
2021/06/03 05:13:03;;;;;;;5.78;2.42;;;;;24.40;101606.00;;;;5082930;28;20199;-75
2021/06/03 05:15:30;;;;;;;4.63;2.80;;;;;24.50;101602.00;;;;5087270;28;20567;-75
2021/06/03 05:17:57;;;;;;;2.83;2.50;;;;;24.50;101607.00;;;;5081898;28;20202;-75
2021/06/03 05:20:26;;;;;;;2.88;2.20;;;;;24.50;101604.00;;;;5082022;28;20235;-75
2021/06/03 05:22:55;;;;;;;2.67;2.03;;;;;24.60;101616.00;;;;5103772;28;20197;-75
2021/06/03 05:25:23;;;;;;;2.67;2.42;;;;;24.60;101609.00;;;;5107246;28;20194;-75
2021/06/03 05:27:52;;;;;;;3.58;2.85;;;;;24.70;101612.00;;;;5090994;28;20193;-76
2021/06/03 05:30:20;;;;;;;2.47;2.28;;;;;24.70;101613.00;;;;5093967;28;20218;-76
2021/06/03 05:32:47;;;;;;;3.88;2.67;;;;;24.80;101620.00;;;;5086874;28;20213;-76
2021/06/03 05:35:16;;;;;;;3.65;2.70;;;;;24.80;101620.00;;;;5080681;28;20207;-75
2021/06/03 05:37:44;;;;;;;3.10;2.55;;;;;24.90;101627.00;;;;5084885;28;20215;-76
2021/06/03 05:40:13;;;;;;;3.60;3.08;;;;;25.00;101627.00;;;;5093749;28;20218;-75
2021/06/03 05:42:40;;;;;;;3.13;2.85;;;;;25.00;101636.00;;;;5088977;28;20197;-76
2021/06/03 05:45:10;;;;;;;4.63;2.70;;;;;25.10;101637.00;;;;5090602;28;20194;-76
2021/06/03 05:47:38;;;;;;;3.13;2.67;;;;;25.20;101638.00;;;;5088353;28;20209;-75
2021/06/03 05:50:06;;;;;;;3.53;3.22;;;;;25.20;101641.00;;;;5082310;28;20232;-76
2021/06/03 05:52:33;;;;;;;4.10;2.90;;;;;25.30;101642.00;;;;5074683;28;20244;-76
2021/06/03 05:55:00;;;;;;;2.95;2.72;;;;;25.40;101644.00;;;;5083276;28;20207;-76
2021/06/03 05:57:27;;;;;;;3.22;2.92;;;;;25.50;101638.00;;;;5087690;28;20217;-76
2021/06/03 05:59:54;;;;;;;3.22;2.92;;;;;25.50;101642.00;;;;5075335;28;20321;-78
2021/06/03 06:02:28;;;;;;;3.50;3.20;;;;;25.60;101645.00;;;;5069985;28;21310;-79
2021/06/03 06:07:40;;;;;;;3.30;3.00;;;;;25.80;101649.00;;;;5069968;28;20205;-80
2021/06/03 06:10:08;;;;;;;5.15;3.38;;;;;25.90;101649.00;;;;5073021;28;20234;-80
2021/06/03 06:12:35;;;;;;;5.45;3.30;;;;;26.00;101647.00;;;;5066770;28;20216;-80
2021/06/03 06:15:02;;;;;;;4.00;3.60;;;;;26.10;101654.00;;;;5068369;28;20210;-80
2021/06/03 06:17:30;;;;;;;4.15;3.75;;;;;26.20;101656.00;;;;5067348;28;20223;-80
2021/06/03 06:19:57;;;;;;;5.65;3.47;;;;;26.30;101657.00;;;;5068363;28;20537;-81
2021/06/03 06:22:24;;;;;;;3.90;3.50;;;;;26.30;101666.00;;;;5068937;28;20669;-78
2021/06/03 06:24:51;;;;;;;4.80;4.22;;;;;26.40;101662.00;;;;5080311;28;20206;-79
2021/06/03 06:27:18;;;;;;;5.85;3.50;;;;;26.50;101661.00;;;;5083592;28;20203;-78
2021/06/03 06:29:44;;;;;;;5.20;3.83;;;;;26.60;101669.00;;;;5068465;28;20229;-79
2021/06/03 06:32:11;;;;;;;5.05;4.45;;;;;26.70;101664.00;;;;5068551;28;20679;-79
2021/06/03 06:34:39;;;;;;;5.55;4.13;;;;;26.80;101667.00;;;;5068367;28;20731;-79
2021/06/03 06:37:06;;;;;;;4.60;4.18;;;;;26.90;101664.00;;;;5069136;28;20222;-79
2021/06/03 06:39:33;;;;;;;4.90;4.05;;;;;26.90;101671.00;;;;5068628;28;20222;-79
2021/06/03 06:41:59;;;;;;;6.38;4.55;;;;;27.00;101672.00;;;;5068994;28;20203;-79
2021/06/03 06:44:26;;;;;;;6.03;4.05;;;;;27.10;101675.00;;;;5088953;28;20209;-79
2021/06/03 06:46:53;;;;;;;3.88;3.47;;;;;27.20;101680.00;;;;5089020;28;20534;-79
2021/06/03 06:49:20;;;;;;;4.22;3.80;;;;;27.30;101682.00;;;;5073125;28;20738;-78
2021/06/03 06:51:48;;;;;;;4.72;3.67;;;;;27.40;101688.00;;;;5068768;28;20665;-79
2021/06/03 06:54:15;;;;;;;6.80;4.55;;;;;27.50;101682.00;;;;5081162;28;20198;-78
2021/06/03 06:56:42;;;;;;;4.30;3.67;;;;;27.60;101689.00;;;;5079818;28;20207;-78
2021/06/03 06:59:09;;;;;;;4.35;3.95;;;;;27.70;101691.00;;;;5080462;28;20221;-80
2021/06/03 07:01:36;;;;;;;4.10;3.53;;;;;27.80;101685.00;;;;5080072;28;20218;-80
2021/06/03 07:04:03;;;;;;;4.65;3.70;;;;;27.80;101691.00;;;;5068626;28;20191;-80
2021/06/03 07:06:30;;;;;;;4.57;4.18;;;;;28.00;101700.00;;;;5071346;28;21051;-79
2021/06/03 07:08:58;;;;;;;4.63;4.20;;;;;28.00;101696.00;;;;5066231;28;20284;-79
2021/06/03 07:11:25;;;;;;;5.50;4.53;;;;;28.10;101699.00;;;;5072131;28;20745;-79
2021/06/03 07:13:52;;;;;;;7.53;4.50;;;;;28.20;101696.00;;;;5074589;28;20643;-79
2021/06/03 07:16:18;;;;;;;4.40;4.00;;;;;28.30;101710.00;;;;5081305;28;20733;-79
2021/06/03 07:18:45;;;;;;;6.93;4.30;;;;;28.30;101695.00;;;;5086253;28;20206;-79
2021/06/03 07:21:12;;;;;;;4.03;3.63;;;;;28.40;101695.00;;;;5074117;28;20230;-79
2021/06/03 07:23:39;;;;;;;4.93;4.10;;;;;28.50;101694.00;;;;5068208;28;20202;-80
2021/06/03 07:26:07;;;;;;;4.38;3.20;;;;;28.60;101701.00;;;;5071879;28;20653;-80
2021/06/03 07:28:33;;;;;;;4.13;3.67;;;;;28.70;101709.00;;;;5067907;28;20202;-80
2021/06/03 07:31:00;;;;;;;4.88;4.03;;;;;28.80;101704.00;;;;5068931;28;20223;-80
2021/06/03 07:33:27;;;;;;;9.15;4.07;;;;;28.90;101699.00;;;;5070225;28;20565;-80
2021/06/03 07:35:54;;;;;;;4.80;4.28;;;;;29.00;101708.00;;;;5070637;28;20272;-80
2021/06/03 07:38:21;;;;;;;6.45;3.45;;;;;29.00;101709.00;;;;5073744;28;20206;-80
2021/06/03 07:40:47;;;;;;;4.20;3.22;;;;;29.00;101697.00;;;;5072613;28;20206;-80
2021/06/03 07:43:17;;;;;;;4.80;3.70;;;;;29.00;101695.00;;;;5066643;28;20377;-80
2021/06/03 07:45:45;;;;;;;4.07;3.78;;;;;29.10;101699.00;;;;5067557;28;20195;-80
2021/06/03 07:48:12;;;;;;;4.45;3.97;;;;;29.10;101698.00;;;;5078937;28;20254;-79
2021/06/03 07:50:40;;;;;;;3.67;3.35;;;;;29.20;101702.00;;;;5074380;28;20349;-79
2021/06/03 07:53:08;;;;;;;4.68;3.83;;;;;29.40;101711.00;;;;5072531;28;20210;-80
2021/06/03 07:55:36;;;;;;;4.03;3.60;;;;;29.50;101709.00;;;;5069351;28;20211;-80
2021/06/03 07:58:05;;;;;;;7.22;3.97;;;;;29.60;101719.00;;;;5081843;28;20683;-80
2021/06/03 08:00:35;;;;;;;4.18;3.58;;;;;29.70;101718.00;;;;5077513;28;20260;-80
2021/06/03 08:03:02;;;;;;;3.92;2.92;;;;;29.90;101719.00;;;;5071998;28;20226;-80
2021/06/03 08:05:29;;;;;;;4.55;3.63;;;;;30.00;101724.00;;;;5076389;28;20231;-80
2021/06/03 08:07:58;;;;;;;6.35;4.35;;;;;30.10;101728.00;;;;5076318;28;20203;-80
2021/06/03 08:10:28;;;;;;;4.03;3.63;;;;;30.30;101733.00;;;;5071154;28;20428;-79
2021/06/03 08:12:56;;;;;;;4.05;3.70;;;;;30.40;101735.00;;;;5074199;28;20726;-80
2021/06/03 08:15:24;;;;;;;5.45;3.60;;;;;30.50;101742.00;;;;5071083;28;20695;-80
2021/06/03 08:17:53;;;;;;;4.07;3.35;;;;;30.50;101741.00;;;;5076203;28;20229;-80
2021/06/03 08:20:23;;;;;;;3.75;3.40;;;;;30.70;101735.00;;;;5077737;28;20202;-80
2021/06/03 08:22:50;;;;;;;4.18;3.63;;;;;30.80;101734.00;;;;5073583;28;20203;-80
2021/06/03 08:25:18;;;;;;;4.25;3.78;;;;;30.90;101741.00;;;;5076085;28;20202;-80
2021/06/03 08:27:45;;;;;;;4.88;4.45;;;;;31.00;101734.00;;;;5085284;28;20194;-79
2021/06/03 08:30:14;;;;;;;4.50;4.10;;;;;31.10;101741.00;;;;5083435;28;20215;-79
2021/06/03 08:32:42;;;;;;;3.95;3.55;;;;;31.20;101742.00;;;;5079635;28;20196;-78
2021/06/03 08:35:14;;;;;;;5.85;4.25;;;;;31.20;101739.00;;;;5084907;28;20194;-79
2021/06/03 08:37:42;;;;;;;5.75;3.83;;;;;31.20;101746.00;;;;5075162;28;20696;-78
2021/06/03 08:40:10;;;;;;;3.67;3.38;;;;;31.20;101745.00;;;;5076670;28;20198;-80
2021/06/03 08:42:37;;;;;;;3.53;3.22;;;;;31.20;101743.00;;;;5083129;28;20202;-81
2021/06/03 08:45:06;;;;;;;3.88;3.40;;;;;31.30;101737.00;;;;5087409;28;20197;-80
2021/06/03 08:47:33;;;;;;;4.53;3.53;;;;;31.40;101743.00;;;;5085976;28;20276;-80
2021/06/03 08:50:00;;;;;;;5.35;4.32;;;;;31.50;101741.00;;;;5073271;28;20283;-81
2021/06/03 08:52:28;;;;;;;4.15;3.67;;;;;31.60;101748.00;;;;5081387;28;20197;-80
2021/06/03 08:54:57;;;;;;;4.55;3.63;;;;;31.70;101749.00;;;;5084896;28;20206;-80
2021/06/03 08:57:24;;;;;;;4.53;3.60;;;;;31.80;101748.00;;;;5073261;28;20206;-81
2021/06/03 08:59:52;;;;;;;5.97;3.90;;;;;31.90;101747.00;;;;5073650;28;20213;-81
2021/06/03 09:02:19;;;;;;;4.30;3.85;;;;;32.10;101745.00;;;;5073231;28;20202;-80
2021/06/03 09:04:46;;;;;;;4.13;2.97;;;;;32.30;101750.00;;;;5074419;28;20202;-80
2021/06/03 09:07:34;;;;;;;2.95;2.70;;;;;32.30;101748.00;;;;5073741;28;20221;-80
2021/06/03 09:10:28;;;;;;;5.43;3.05;;;;;32.40;101742.00;;;;5072660;28;20264;-81
2021/06/03 09:13:10;;;;;;;5.20;2.83;;;;;32.50;101743.00;;;;5081849;28;20254;-81
2021/06/03 09:15:37;;;;;;;2.83;2.53;;;;;32.70;101750.00;;;;5073627;28;20205;-81
2021/06/03 09:18:08;;;;;;;3.90;3.15;;;;;32.70;101746.00;;;;5073919;28;20649;-80
2021/06/03 09:20:35;;;;;;;3.53;3.22;;;;;32.80;101749.00;;;;5085246;28;20200;-81
2021/06/03 09:23:04;;;;;;;3.63;2.97;;;;;32.70;101755.00;;;;5079818;28;20198;-80
2021/06/03 09:25:36;;;;;;;3.50;2.65;;;;;32.70;101755.00;;;;5073812;28;20203;-80
2021/06/03 09:28:22;;;;;;;2.83;2.63;;;;;32.60;101761.00;;;;5073512;28;20249;-80
2021/06/03 09:30:57;;;;;;;4.07;3.50;;;;;32.70;101761.00;;;;5074196;28;20233;-80
2021/06/03 09:33:52;;;;;;;3.63;3.25;;;;;32.50;101754.00;;;;5075706;28;20210;-80
2021/06/03 09:36:25;;;;;;;4.80;3.92;;;;;32.60;101754.00;;;;5029561;28;20211;-80
2021/06/03 09:39:13;;;;;;;4.85;3.67;;;;;32.50;101763.00;;;;5078036;28;20198;-80
2021/06/03 09:41:43;;;;;;;4.95;3.58;;;;;32.50;101768.00;;;;5071991;28;20205;-80
2021/06/03 09:44:13;;;;;;;7.68;4.45;;;;;32.40;101762.00;;;;5082584;28;20191;-80
2021/06/03 09:46:42;;;;;;;6.10;4.25;;;;;32.40;101769.00;;;;5074576;28;20202;-79
2021/06/03 09:49:19;;;;;;;5.32;4.15;;;;;32.30;101764.00;;;;5087474;28;20214;-80
2021/06/03 09:51:47;;;;;;;4.60;4.20;;;;;32.40;101776.00;;;;5071145;28;20255;-81
2021/06/03 09:54:19;;;;;;;6.32;4.38;;;;;32.30;101771.00;;;;5070234;28;20195;-81
2021/06/03 09:56:49;;;;;;;4.43;4.03;;;;;32.30;101774.00;;;;5073651;28;20209;-81
2021/06/03 09:59:18;;;;;;;4.43;3.20;;;;;32.30;101776.00;;;;5081246;28;20562;-81
2021/06/03 10:01:48;;;;;;;3.45;3.13;;;;;32.20;101781.00;;;;5071280;28;20198;-80
2021/06/03 10:04:17;;;;;;;4.55;3.80;;;;;32.10;101782.00;;;;5075438;28;20741;-81
2021/06/03 10:06:55;;;;;;;4.93;3.40;;;;;32.00;101783.00;;;;5078859;28;20287;-81
2021/06/03 10:09:43;;;;;;;5.70;3.40;;;;;31.90;101777.00;;;;5073731;28;20238;-81
2021/06/03 10:12:12;;;;;;;5.13;4.07;;;;;31.90;101786.00;;;;5068588;28;20210;-81
2021/06/03 10:14:39;;;;;;;4.20;3.80;;;;;31.90;101781.00;;;;5068693;28;20195;-80
2021/06/03 10:17:15;;;;;;;3.95;3.63;;;;;31.80;101784.00;;;;5082810;28;20202;-79
2021/06/03 10:19:42;;;;;;;4.25;3.90;;;;;31.80;101783.00;;;;5071910;28;20202;-79
2021/06/03 10:22:17;;;;;;;4.15;3.85;;;;;31.80;101783.00;;;;5084005;28;20210;-80
2021/06/03 10:24:53;;;;;;;5.88;3.88;;;;;31.90;101783.00;;;;5079519;28;20212;-79
2021/06/03 10:27:21;;;;;;;3.67;3.38;;;;;32.00;101786.00;;;;5080240;28;20198;-80
2021/06/03 10:29:49;;;;;;;4.07;3.25;;;;;32.20;101776.00;;;;5083154;28;20524;-80
2021/06/03 10:32:17;;;;;;;3.55;3.25;;;;;32.20;101772.00;;;;5068683;28;20198;-80
2021/06/03 10:34:46;;;;;;;4.13;3.72;;;;;32.30;101779.00;;;;5068566;28;20210;-80
2021/06/03 10:37:13;;;;;;;3.90;3.25;;;;;32.40;101766.00;;;;5075762;28;20222;-80
2021/06/03 10:39:41;;;;;;;5.45;3.50;;;;;32.60;101779.00;;;;5082913;28;20247;-80
2021/06/03 10:42:11;;;;;;;5.03;4.20;;;;;32.60;101778.00;;;;5068538;28;20202;-81
2021/06/03 10:44:39;;;;;;;4.57;4.18;;;;;32.70;101782.00;;;;5068560;28;20221;-80
2021/06/03 10:47:08;;;;;;;5.30;4.07;;;;;32.70;101774.00;;;;5070868;28;20193;-80
2021/06/03 10:49:36;;;;;;;4.68;4.25;;;;;32.70;101777.00;;;;5071131;28;20248;-81
2021/06/03 10:52:07;;;;;;;4.07;3.78;;;;;32.80;101771.00;;;;5068102;28;20681;-80
2021/06/03 10:54:42;;;;;;;5.60;4.25;;;;;32.70;101767.00;;;;5074551;28;20299;-79
2021/06/03 10:57:11;;;;;;;6.60;4.20;;;;;32.80;101769.00;;;;5076970;28;20236;-79
2021/06/03 10:59:38;;;;;;;3.92;3.47;;;;;32.90;101778.00;;;;5070829;28;20202;-80
2021/06/03 11:02:07;;;;;;;6.28;4.05;;;;;33.00;101777.00;;;;5068319;28;20206;-79
2021/06/03 11:04:34;;;;;;;4.78;4.38;;;;;33.10;101777.00;;;;5070814;28;20201;-80
2021/06/03 11:07:02;;;;;;;6.40;3.92;;;;;33.10;101787.00;;;;5076928;28;20574;-79
2021/06/03 11:09:29;;;;;;;5.32;4.03;;;;;33.10;101787.00;;;;5078087;28;20233;-80
2021/06/03 11:12:22;;;;;;;5.97;4.03;;;;;33.10;101779.00;;;;5074925;28;20222;-79
2021/06/03 11:15:07;;;;;;;5.40;4.15;;;;;33.20;101782.00;;;;5067447;28;20206;-79
2021/06/03 11:17:58;;;;;;;3.90;3.55;;;;;33.20;101780.00;;;;5072481;28;20190;-80
2021/06/03 11:20:43;;;;;;;3.25;2.95;;;;;33.30;101779.00;;;;5068260;28;20562;-80
2021/06/03 11:23:43;;;;;;;3.92;3.60;;;;;33.30;101770.00;;;;5072986;28;20204;-80
2021/06/03 11:26:25;;;;;;;5.07;3.72;;;;;33.50;101772.00;;;;5061636;28;20580;-79
2021/06/03 11:31:47;;;;;;;5.32;3.38;;;;;33.40;101777.00;;;;5143753;27;20636;-79
2021/06/03 11:34:16;;;;;;;4.80;3.15;;;;;33.40;101777.00;;;;5125905;28;20280;-79
2021/06/03 11:36:55;;;;;;;5.80;3.90;;;;;33.30;101779.00;;;;5125612;28;20212;-80
2021/06/03 11:39:43;;;;;;;3.60;3.30;;;;;33.10;101779.00;;;;5125498;28;20610;-78
2021/06/03 11:42:18;;;;;;;7.50;3.55;;;;;33.10;101777.00;;;;5110908;28;20192;-78
2021/06/03 11:45:04;;;;;;;5.07;3.38;;;;;32.90;101787.00;;;;5125092;28;20196;-80
2021/06/03 11:48:03;;;;;;;5.53;3.50;;;;;32.80;101780.00;;;;5121687;27;20278;-79
2021/06/03 11:50:48;;;;;;;4.03;3.70;;;;;32.80;101773.00;;;;5119046;28;20217;-80
2021/06/03 11:53:17;;;;;;;3.38;3.08;;;;;32.90;101781.00;;;;5115916;28;20200;-78
2021/06/03 11:55:47;;;;;;;4.70;4.28;;;;;32.90;101776.00;;;;5123939;28;20510;-77
2021/06/03 11:58:18;;;;;;;5.43;3.10;;;;;32.90;101773.00;;;;5106377;28;20280;-77
2021/06/03 12:00:47;;;;;;;7.30;4.65;;;;;32.90;101779.00;;;;5113736;28;20199;-77
2021/06/03 12:03:30;;;;;;;3.80;3.50;;;;;32.90;101772.00;;;;5122044;28;20659;-78
2021/06/03 12:05:58;;;;;;;4.43;4.03;;;;;33.00;101779.00;;;;5124930;28;20254;-79
2021/06/03 12:08:50;;;;;;;4.97;4.00;;;;;32.90;101779.00;;;;5115766;28;20643;-78
2021/06/03 12:11:21;;;;;;;5.07;4.13;;;;;32.90;101777.00;;;;5119015;28;20224;-79
2021/06/03 12:14:01;;;;;;;5.07;4.60;;;;;32.80;101780.00;;;;5125016;28;20211;-79
2021/06/03 12:16:34;;;;;;;5.38;3.72;;;;;32.70;101778.00;;;;5115058;28;20199;-79
2021/06/03 12:19:03;;;;;;;4.95;4.10;;;;;32.70;101774.00;;;;5124721;28;20309;-79
2021/06/03 12:21:30;;;;;;;7.72;4.40;;;;;32.70;101770.00;;;;5124767;28;20557;-79
2021/06/03 12:23:57;;;;;;;5.35;4.10;;;;;32.80;101774.00;;;;5122581;28;20205;-79
2021/06/03 12:26:25;;;;;;;3.60;3.28;;;;;32.80;101768.00;;;;5124700;28;20193;-78